createdAt,value
2022-12-09T00:03:43.895Z,7.20
2022-12-09T00:07:50.660Z,7.17
2022-12-09T00:11:52.860Z,6.53
2022-12-09T00:15:54.797Z,7.53
2022-12-09T00:19:56.613Z,8.30
2022-12-09T00:24:00.211Z,7.63
2022-12-09T00:28:02.107Z,7.80
2022-12-09T00:32:04.176Z,7.00
2022-12-09T00:36:08.419Z,7.33
2022-12-09T00:40:11.147Z,7.37
2022-12-09T00:44:13.480Z,6.63
2022-12-09T00:48:15.233Z,5.97
2022-12-09T00:52:17.139Z,6.70
2022-12-09T00:56:18.921Z,6.83
2022-12-09T01:00:21.045Z,6.73
2022-12-09T01:04:24.955Z,6.83
2022-12-09T01:08:27.327Z,7.63
2022-12-09T01:12:29.204Z,6.80
2022-12-09T01:16:33.648Z,7.63
2022-12-09T01:20:35.835Z,6.90
2022-12-09T01:24:37.996Z,7.77
2022-12-09T01:28:40.256Z,8.20
2022-12-09T01:32:42.393Z,6.87
2022-12-09T01:36:44.699Z,7.90
2022-12-09T01:40:47.241Z,7.63
2022-12-09T01:45:20.063Z,7.50
2022-12-09T01:49:43.210Z,7.30
2022-12-09T01:53:47.686Z,8.67
2022-12-09T01:57:49.649Z,8.33
2022-12-09T02:01:53.225Z,8.23
2022-12-09T02:05:55.186Z,9.23
2022-12-09T02:09:57.165Z,8.40
2022-12-09T02:14:35.482Z,8.50
2022-12-09T02:18:42.911Z,9.43
2022-12-09T02:22:58.668Z,8.83
2022-12-09T02:27:20.695Z,9.03
2022-12-09T02:32:02.963Z,9.67
2022-12-09T02:36:16.538Z,7.73
2022-12-09T02:40:22.540Z,8.70
2022-12-09T02:44:24.413Z,7.50
2022-12-09T02:48:32.350Z,7.50
2022-12-09T02:52:34.367Z,7.40
2022-12-09T02:56:36.386Z,7.13
2022-12-09T03:00:51.021Z,7.23
2022-12-09T03:05:52.906Z,7.57
2022-12-09T03:10:27.871Z,7.07
2022-12-09T03:14:37.269Z,6.17
2022-12-09T03:18:49.036Z,6.53
2022-12-09T03:22:51.475Z,7.17
2022-12-09T03:26:53.297Z,7.30
2022-12-09T03:30:55.458Z,6.57
2022-12-09T03:35:11.390Z,6.83
2022-12-09T03:39:15.081Z,7.17
2022-12-09T03:43:25.559Z,6.63
2022-12-09T03:47:27.775Z,6.60
2022-12-09T03:51:43.203Z,7.13
2022-12-09T03:56:14.356Z,6.70
2022-12-09T04:00:18.293Z,7.10
2022-12-09T04:04:20.435Z,7.60
2022-12-09T04:08:22.622Z,7.80
2022-12-09T04:12:24.550Z,7.00
2022-12-09T04:16:26.417Z,8.13
2022-12-09T04:20:28.615Z,7.63
2022-12-09T04:24:30.503Z,7.73
2022-12-09T04:28:32.446Z,7.70
2022-12-09T04:32:34.531Z,6.80
2022-12-09T04:36:36.563Z,7.57
2022-12-09T04:40:39.107Z,8.07
2022-12-09T04:44:41.330Z,7.37
2022-12-09T04:48:43.792Z,7.63
2022-12-09T04:52:45.680Z,7.50
2022-12-09T04:56:48.434Z,7.80
2022-12-09T05:00:50.645Z,6.90
2022-12-09T05:04:53.001Z,7.33
2022-12-09T05:08:55.182Z,6.57
2022-12-09T05:12:57.746Z,7.30
2022-12-09T05:17:00.076Z,7.27
2022-12-09T05:21:06.974Z,7.00
2022-12-09T05:25:09.604Z,6.80
2022-12-09T05:29:11.688Z,7.40
2022-12-09T05:33:14.571Z,6.83
2022-12-09T05:37:16.666Z,7.13
2022-12-09T05:41:19.098Z,6.57
2022-12-09T05:45:21.370Z,7.13
2022-12-09T05:49:23.771Z,7.60
2022-12-09T05:53:29.126Z,7.77
2022-12-09T05:57:31.239Z,7.67
2022-12-09T06:01:33.716Z,8.30
2022-12-09T06:05:37.238Z,7.93
2022-12-09T06:09:39.559Z,8.13
2022-12-09T06:13:41.675Z,7.80
2022-12-09T06:17:46.705Z,8.17
2022-12-09T06:21:48.967Z,8.70
2022-12-09T06:25:50.914Z,7.93
2022-12-09T06:29:52.957Z,8.43
2022-12-09T06:33:57.373Z,9.60
2022-12-09T06:37:59.957Z,8.57
2022-12-09T06:42:04.492Z,9.03
2022-12-09T06:46:21.241Z,9.27
2022-12-09T06:50:23.837Z,8.10
2022-12-09T06:54:26.627Z,8.13
2022-12-09T06:58:28.496Z,8.60
2022-12-09T07:02:35.554Z,8.27
2022-12-09T07:06:41.159Z,7.83
2022-12-09T07:10:49.105Z,7.00
2022-12-09T07:14:53.621Z,7.17
2022-12-09T07:18:56.429Z,7.17
2022-12-09T07:22:58.707Z,7.60
2022-12-09T07:27:04.703Z,7.73
2022-12-09T07:31:36.618Z,6.57
2022-12-09T07:35:38.776Z,7.23
2022-12-09T07:39:41.230Z,7.17
2022-12-09T07:43:44.497Z,7.07
2022-12-09T07:47:46.943Z,7.60
2022-12-09T07:51:49.572Z,7.33
2022-12-09T07:55:51.646Z,8.20
2022-12-09T07:59:53.603Z,8.23
2022-12-09T08:03:56.735Z,9.10
2022-12-09T08:07:58.979Z,8.13
2022-12-09T08:12:01.193Z,8.93
2022-12-09T08:16:07.995Z,8.40
2022-12-09T08:20:11.271Z,8.87
2022-12-09T08:24:13.843Z,8.13
2022-12-09T08:28:17.149Z,10.23
2022-12-09T08:32:19.441Z,10.50
2022-12-09T08:36:24.871Z,11.20
2022-12-09T08:40:27.109Z,11.10
2022-12-09T08:44:29.221Z,12.23
2022-12-09T08:48:31.391Z,11.93
2022-12-09T08:52:40.089Z,13.13
2022-12-09T08:56:47.614Z,12.17
2022-12-09T09:00:50.298Z,13.33
2022-12-09T09:04:52.749Z,13.00
2022-12-09T09:08:57.514Z,12.47
2022-12-09T09:12:59.607Z,12.80
2022-12-09T09:17:01.944Z,12.53
2022-12-09T09:21:04.377Z,12.47
2022-12-09T09:25:06.934Z,11.80
2022-12-09T09:29:13.636Z,12.27
2022-12-09T09:33:16.153Z,12.50
2022-12-09T09:37:18.345Z,12.47
2022-12-09T09:42:09.625Z,12.63
2022-12-09T09:46:19.797Z,11.57
2022-12-09T09:50:37.772Z,11.33
2022-12-09T09:54:40.073Z,10.83
2022-12-09T09:59:09.686Z,13.37
2022-12-09T10:03:55.176Z,12.70
2022-12-09T10:08:36.750Z,12.97
2022-12-09T10:13:17.898Z,13.87
2022-12-09T10:17:53.616Z,11.63
2022-12-09T10:21:56.436Z,10.67
2022-12-09T10:26:03.183Z,11.13
2022-12-09T10:30:11.604Z,12.53
2022-12-09T10:34:14.384Z,12.30
2022-12-09T10:38:18.921Z,12.07
2022-12-09T10:42:39.819Z,12.67
2022-12-09T10:46:41.876Z,12.27
2022-12-09T10:50:44.327Z,11.93
2022-12-09T10:55:00.300Z,11.80
2022-12-09T10:59:27.396Z,13.03
2022-12-09T11:03:51.114Z,12.13
2022-12-09T11:07:54.651Z,12.50
2022-12-09T11:11:57.697Z,12.03
2022-12-09T11:16:04.814Z,13.10
2022-12-09T11:20:10.177Z,12.30
2022-12-09T11:24:22.170Z,12.90
2022-12-09T11:28:36.930Z,13.13
2022-12-09T11:33:09.012Z,13.77
2022-12-09T11:37:14.085Z,13.90
2022-12-09T11:41:38.707Z,13.87
2022-12-09T11:45:40.719Z,13.30
2022-12-09T11:49:59.238Z,14.43
2022-12-09T11:54:24.355Z,14.87
2022-12-09T11:58:39.997Z,14.47
2022-12-09T12:02:46.823Z,13.97
2022-12-09T12:06:51.828Z,13.93
2022-12-09T12:11:14.883Z,14.07
2022-12-09T12:15:47.433Z,14.30
2022-12-09T12:19:53.197Z,13.60
2022-12-09T12:24:24.061Z,15.10
2022-12-09T12:28:50.519Z,15.10
2022-12-09T12:37:51.709Z,12.83
2022-12-09T12:43:02.474Z,12.70
2022-12-09T12:47:54.169Z,12.00
2022-12-09T12:52:54.987Z,12.87
2022-12-09T12:57:23.991Z,11.93
2022-12-09T13:01:55.042Z,11.23
2022-12-09T13:05:57.293Z,11.77
2022-12-09T13:10:16.686Z,12.30
2022-12-09T13:14:23.221Z,10.87
2022-12-09T13:18:31.754Z,12.67
2022-12-09T13:23:00.432Z,12.97
2022-12-09T13:27:14.146Z,11.30
2022-12-09T13:31:16.665Z,12.03
2022-12-09T13:35:33.914Z,11.83
2022-12-09T13:39:42.152Z,11.67
2022-12-09T13:43:44.137Z,11.53
2022-12-09T13:47:46.220Z,12.20
2022-12-09T13:51:51.830Z,12.17
2022-12-09T13:56:00.764Z,11.77
2022-12-09T14:00:06.176Z,11.47
2022-12-09T14:04:11.673Z,10.73
2022-12-09T14:08:35.937Z,12.10
2022-12-09T14:12:44.220Z,12.40
2022-12-09T14:16:46.422Z,11.23
2022-12-09T14:21:18.333Z,11.83
2022-12-09T14:25:59.607Z,11.10
2022-12-09T14:30:21.809Z,13.33
2022-12-09T14:34:36.466Z,13.80
2022-12-09T14:43:32.058Z,11.27
2022-12-09T14:47:46.335Z,12.40
2022-12-09T14:52:19.180Z,12.63
2022-12-09T14:56:22.538Z,12.03
2022-12-09T15:00:37.395Z,10.30
2022-12-09T15:04:44.573Z,10.73
2022-12-09T15:08:46.975Z,10.17
2022-12-09T15:12:58.513Z,11.53
2022-12-09T15:17:00.331Z,10.60
2022-12-09T15:21:02.226Z,9.60
2022-12-09T15:25:05.770Z,11.40
2022-12-09T15:29:21.052Z,11.00
2022-12-09T15:33:23.201Z,9.90
2022-12-09T15:37:27.307Z,11.20
2022-12-09T15:42:06.614Z,9.73
2022-12-09T15:46:08.976Z,9.73
2022-12-09T15:50:41.559Z,10.47
2022-12-09T15:54:43.459Z,10.60
2022-12-09T15:58:51.412Z,10.50
2022-12-09T16:02:53.442Z,10.50
2022-12-09T16:06:58.413Z,11.07
2022-12-09T16:11:00.321Z,11.07
2022-12-09T16:15:03.560Z,10.43
2022-12-09T16:19:05.480Z,11.63
2022-12-09T16:23:24.329Z,10.90
2022-12-09T16:27:28.970Z,10.80
2022-12-09T16:31:31.492Z,11.13
2022-12-09T16:35:43.474Z,11.87
2022-12-09T16:39:45.468Z,14.23
2022-12-09T16:43:56.206Z,13.20
2022-12-09T16:47:58.786Z,11.97
2022-12-09T16:52:01.014Z,12.40
2022-12-09T16:56:03.416Z,12.00
2022-12-09T17:00:06.257Z,10.80
2022-12-09T17:04:31.083Z,12.60
2022-12-09T17:08:33.464Z,12.23
2022-12-09T17:12:35.565Z,12.97
2022-12-09T17:16:46.946Z,13.57
2022-12-09T17:20:59.489Z,12.83
2022-12-09T17:25:01.470Z,13.67
2022-12-09T17:29:03.340Z,13.53
2022-12-09T17:33:06.063Z,13.03
2022-12-09T17:37:08.261Z,11.87
2022-12-09T17:41:14.919Z,16.03
2022-12-09T17:45:17.226Z,19.87
2022-12-09T17:49:19.610Z,14.07
2022-12-09T17:53:21.835Z,13.03
2022-12-09T17:57:24.043Z,9.83
2022-12-09T18:01:26.143Z,10.93
2022-12-09T18:05:34.056Z,11.93
2022-12-09T18:09:35.913Z,12.50
2022-12-09T18:13:38.183Z,12.27
2022-12-09T18:17:42.357Z,10.70
2022-12-09T18:21:44.686Z,10.67
2022-12-09T18:25:46.776Z,12.73
2022-12-09T18:29:48.647Z,20.00
2022-12-09T18:33:51.804Z,11.67
2022-12-09T18:37:55.236Z,11.67
2022-12-09T18:42:00.200Z,12.03
2022-12-09T18:46:37.063Z,10.60
2022-12-09T18:50:40.744Z,10.80
2022-12-09T18:54:42.794Z,9.63
2022-12-09T18:59:09.988Z,10.30
2022-12-09T19:03:25.503Z,9.27
2022-12-09T19:08:04.352Z,10.20
2022-12-09T19:12:44.909Z,9.90
2022-12-09T19:16:29.493Z,10.20
2022-12-09T19:20:40.160Z,9.63
2022-12-09T19:24:50.601Z,9.97
2022-12-09T19:29:02.070Z,10.37
2022-12-09T19:33:04.023Z,9.83
2022-12-09T19:37:06.999Z,9.67
2022-12-09T19:41:09.116Z,10.60
2022-12-09T19:45:14.132Z,8.43
2022-12-09T19:49:18.103Z,9.50
2022-12-09T19:53:22.957Z,9.60
2022-12-09T19:57:25.115Z,9.07
2022-12-09T20:01:32.879Z,9.13
2022-12-09T20:05:34.789Z,9.77
2022-12-09T20:09:37.412Z,9.60
2022-12-09T20:13:40.402Z,7.60
2022-12-09T20:17:42.320Z,9.73
2022-12-09T20:21:50.391Z,10.53
2022-12-09T20:25:52.288Z,10.77
2022-12-09T20:30:03.447Z,10.27
2022-12-09T20:34:08.658Z,10.80
2022-12-09T20:38:10.947Z,10.10
2022-12-09T20:42:13.052Z,9.63
2022-12-09T20:46:19.960Z,10.50
2022-12-09T20:50:22.006Z,10.70
2022-12-09T20:54:24.148Z,9.77
2022-12-09T20:58:26.142Z,10.63
2022-12-09T21:02:28.751Z,11.03
2022-12-09T21:06:33.297Z,11.40
2022-12-09T21:10:37.524Z,11.90
2022-12-09T21:14:39.408Z,12.83
2022-12-09T21:18:41.874Z,12.43
2022-12-09T21:22:43.765Z,12.20
2022-12-09T21:26:47.235Z,12.50
2022-12-09T21:30:49.347Z,12.50
2022-12-09T21:34:51.259Z,12.50
2022-12-09T21:38:53.665Z,12.97
2022-12-09T21:42:55.516Z,13.80
2022-12-09T21:46:57.325Z,12.97
2022-12-09T21:51:11.160Z,14.77
2022-12-09T21:55:12.932Z,14.70
2022-12-09T21:59:30.031Z,14.97
2022-12-09T22:03:31.878Z,15.97
2022-12-09T22:07:33.644Z,14.93
2022-12-09T22:11:37.116Z,12.80
2022-12-09T22:15:38.867Z,14.37
2022-12-09T22:19:40.710Z,13.33
2022-12-09T22:23:42.581Z,14.93
2022-12-09T22:27:44.451Z,15.17
2022-12-09T22:31:46.588Z,15.33
2022-12-09T22:35:48.429Z,16.07
2022-12-09T22:39:50.607Z,14.67
2022-12-09T22:43:54.048Z,15.23
2022-12-09T22:47:55.840Z,15.40
2022-12-09T22:52:00.569Z,16.43
2022-12-09T22:56:03.498Z,16.20
2022-12-09T23:00:11.508Z,15.83
2022-12-09T23:04:15.020Z,16.53
2022-12-09T23:08:17.148Z,15.77
2022-12-09T23:12:18.977Z,17.07
2022-12-09T23:16:25.279Z,16.03
2022-12-09T23:20:27.211Z,16.13
2022-12-09T23:24:29.020Z,14.73
2022-12-09T23:28:32.615Z,16.87
2022-12-09T23:32:34.439Z,16.20
2022-12-09T23:36:38.814Z,16.57
2022-12-09T23:40:40.660Z,16.63
2022-12-09T23:44:42.454Z,15.23
2022-12-09T23:48:45.125Z,15.23
2022-12-09T23:52:46.938Z,15.73
2022-12-09T23:56:50.013Z,14.87
